British Ensign — MMER9 — position and weather

sailwx.info

Track history (hours):
 
Tides and Currents Weather Stations Pressure Air Temp Water Temp Dewpoint Dewpoint Depression Visibility Wind Speed Wind Dir Waves Ship Positions

British Ensign

Last reported at 2014-Aug-29 18:00 UTC. Time now 2014-Sep-01 13:58 UTC.
Position N 60°18' E 028°00'.

Length 184.2 m; beam 27.4 m; draft 11.3 m.

Type: Ship. MMSI: 235010980.

Wind from 050 at 18 knots

Barometer 1012.6 mb
Air temperature 14.5 ° C
Visibility: greater than 5.4 NM
Dewpoint 8.6 ° C

Date/timePositionNaut miles runAvg speedWind from/ knotsBaromVisibWave heightAir tempDewpointWater temp
2014-Aug-29 18:00N 60°18' E 028°00'0 0.0 050 / 181012.6 5.4 14.5 8.6
2014-Aug-29 08:00N 60°18' E 028°00'0 0.0 070 / 101008.310.8 13.510.6
2014-Aug-27 06:00N 60°18' E 028°00'0 0.0 270 / 8993.910.8 15.013.2
2014-Aug-27 04:00N 60°18' E 028°00'0 0.0 999 / 4993.6 5.4 15.812.7
2014-Aug-27 03:00N 60°18' E 028°00'0 0.0 340 / 6993.3 5.4 15.512.8
2014-Aug-26 14:00N 60°18' E 028°00'   240 / 10993.810.8 17.111.6
2014-Aug-23 22:04N 60°07' E 027°35'1014.3
2014-Aug-23 21:22N 60°02' E 027°18'1113.7
2014-Aug-23 20:33N 59°58' E 026°57'1413.8
2014-Aug-23 19:33N 59°58' E 026°30'45213.7
2014-Aug-22 10:33N 55°28' E 015°12'1414.2
2014-Aug-22 09:33N 55°20' E 014°52'1212.3
2014-Aug-22 08:33N 55°13' E 014°34'1414.2
2014-Aug-22 07:33N 55°04' E 014°14'1514.4
2014-Aug-22 06:32N 54°58' E 013°51'1414.6
2014-Aug-22 05:34N 54°52' E 013°28'1514.7
2014-Aug-22 04:34N 54°47' E 013°05'1413.8
2014-Aug-22 03:33N 54°41' E 012°43'1414.5
2014-Aug-22 02:34N 54°33' E 012°22'1413.7
2014-Aug-22 01:33N 54°25' E 012°03'15911.4
2014-Aug-21 11:33N 57°04' E 011°40'1514.7
2014-Aug-21 10:33N 57°18' E 011°30'1414.4
2014-Aug-21 09:33N 57°30' E 011°18'1514.6
2014-Aug-21 08:33N 57°40' E 010°58'1010.1
2014-Aug-21 07:33N 57°47' E 010°44'1515.2
2014-Aug-21 06:33N 57°46' E 010°16'1514.9
2014-Aug-21 05:32N 57°46' E 009°48'36712.7
2014-Aug-20 00:32N 54°57' W 000°01'1312.9
2014-Aug-19 23:33N 54°52' W 000°21'1312.9
2014-Aug-19 22:33N 54°47' W 000°42'1212.6
2014-Aug-19 21:33N 54°42' W 001°02'  
Track history (hours):
 
Tides and Currents Weather Stations Pressure Air Temp Water Temp Dewpoint Dewpoint Depression Visibility Wind Speed Wind Dir Waves Ship Positions

British Ensign

Last reported at 2014-Aug-29 18:00 UTC. Time now 2014-Sep-01 13:58 UTC.
Position N 60°18' E 028°00'.

Length 184.2 m; beam 27.4 m; draft 11.3 m.

Type: Ship. MMSI: 235010980.

Wind from 050 at 18 knots

Barometer 1012.6 mb
Air temperature 14.5 ° C
Visibility: greater than 5.4 NM
Dewpoint 8.6 ° C

Date/timePositionNaut miles runAvg speedWind from/ knotsBaromVisibWave heightAir tempDewpointWater temp
2014-Aug-29 18:00N 60°18' E 028°00'0 0.0 050 / 181012.6 5.4 14.5 8.6
2014-Aug-29 08:00N 60°18' E 028°00'0 0.0 070 / 101008.310.8 13.510.6
2014-Aug-27 06:00N 60°18' E 028°00'0 0.0 270 / 8993.910.8 15.013.2
2014-Aug-27 04:00N 60°18' E 028°00'0 0.0 999 / 4993.6 5.4 15.812.7
2014-Aug-27 03:00N 60°18' E 028°00'0 0.0 340 / 6993.3 5.4 15.512.8
2014-Aug-26 14:00N 60°18' E 028°00'   240 / 10993.810.8 17.111.6
2014-Aug-23 22:04N 60°07' E 027°35'1014.3
2014-Aug-23 21:22N 60°02' E 027°18'1113.7
2014-Aug-23 20:33N 59°58' E 026°57'1413.8
2014-Aug-23 19:33N 59°58' E 026°30'45213.7
2014-Aug-22 10:33N 55°28' E 015°12'1414.2
2014-Aug-22 09:33N 55°20' E 014°52'1212.3
2014-Aug-22 08:33N 55°13' E 014°34'1414.2
2014-Aug-22 07:33N 55°04' E 014°14'1514.4
2014-Aug-22 06:32N 54°58' E 013°51'1414.6
2014-Aug-22 05:34N 54°52' E 013°28'1514.7
2014-Aug-22 04:34N 54°47' E 013°05'1413.8
2014-Aug-22 03:33N 54°41' E 012°43'1414.5
2014-Aug-22 02:34N 54°33' E 012°22'1413.7
2014-Aug-22 01:33N 54°25' E 012°03'15911.4
2014-Aug-21 11:33N 57°04' E 011°40'1514.7
2014-Aug-21 10:33N 57°18' E 011°30'1414.4
2014-Aug-21 09:33N 57°30' E 011°18'1514.6
2014-Aug-21 08:33N 57°40' E 010°58'1010.1
2014-Aug-21 07:33N 57°47' E 010°44'1515.2
2014-Aug-21 06:33N 57°46' E 010°16'1514.9
2014-Aug-21 05:32N 57°46' E 009°48'36712.7
2014-Aug-20 00:32N 54°57' W 000°01'1312.9
2014-Aug-19 23:33N 54°52' W 000°21'1312.9
2014-Aug-19 22:33N 54°47' W 000°42'1212.6
2014-Aug-19 21:33N 54°42' W 001°02'  

Dump ship's entire track history